createdAt,value
2018-01-22T11:17:13.804Z,991.40
2018-01-22T11:18:13.744Z,991.39
2018-01-22T11:20:08.192Z,991.36
2018-01-22T11:21:08.175Z,991.32
2018-01-22T11:23:02.562Z,991.33
2018-01-22T11:24:02.504Z,991.29
2018-01-22T11:25:56.870Z,991.25
2018-01-22T11:26:56.876Z,991.24
2018-01-22T11:28:51.254Z,991.24
2018-01-22T11:29:51.206Z,991.22
2018-01-22T11:31:45.574Z,991.23
2018-01-22T11:32:45.583Z,991.16
2018-01-22T11:34:44.486Z,991.13
2018-01-22T11:35:44.367Z,991.13
2018-01-22T11:37:38.881Z,991.10
2018-01-22T11:38:38.715Z,991.07
2018-01-22T11:40:33.111Z,991.05
2018-01-22T11:41:33.081Z,991.05
2018-01-22T11:43:27.505Z,991.06
2018-01-22T11:44:27.437Z,991.02
2018-01-22T11:46:21.807Z,990.94
2018-01-22T11:47:21.789Z,990.92
2018-01-22T11:49:16.192Z,990.93
2018-01-22T11:50:16.140Z,990.94
2018-01-22T11:52:10.498Z,990.86
2018-01-22T11:53:10.485Z,990.81
2018-01-22T11:55:04.931Z,990.81
2018-01-22T11:56:04.840Z,990.85
2018-01-22T11:57:59.713Z,990.78
2018-01-22T11:58:59.809Z,990.75
2018-01-22T12:00:54.122Z,990.72
2018-01-22T12:01:54.062Z,990.77
2018-01-22T12:03:48.427Z,990.72
2018-01-22T12:04:48.409Z,990.78
2018-01-22T12:06:42.872Z,990.73
2018-01-22T12:07:42.738Z,990.75
2018-01-22T12:09:37.108Z,990.75
2018-01-22T12:10:37.092Z,990.72
2018-01-22T12:12:31.552Z,990.76
2018-01-22T12:13:31.450Z,990.72
2018-01-22T12:15:25.805Z,990.77
2018-01-22T12:16:25.797Z,990.77
2018-01-22T12:18:20.251Z,990.77
2018-01-22T12:19:20.162Z,990.76
2018-01-22T12:21:14.609Z,990.70
2018-01-22T12:22:14.518Z,990.72
2018-01-22T12:24:08.886Z,990.72
2018-01-22T12:25:08.875Z,990.68
2018-01-22T12:27:03.273Z,990.67
2018-01-22T12:28:03.221Z,990.64
2018-01-22T12:29:57.584Z,990.58
2018-01-22T12:30:57.577Z,990.59
2018-01-22T12:32:51.034Z,990.56
2018-01-22T12:33:50.932Z,990.55
2018-01-22T12:35:45.343Z,990.54
2018-01-22T12:36:45.356Z,990.48
2018-01-22T12:38:39.711Z,990.52
2018-01-22T12:39:39.645Z,990.51
2018-01-22T12:41:34.004Z,990.50
2018-01-22T12:42:33.999Z,990.46
2018-01-22T12:44:29.389Z,990.46
2018-01-22T12:45:29.347Z,990.45
2018-01-22T12:47:23.718Z,990.45
2018-01-22T12:48:23.736Z,990.42
2018-01-22T12:50:18.168Z,990.40
2018-01-22T12:51:18.068Z,990.38
2018-01-22T12:53:12.451Z,990.34
2018-01-22T12:54:12.421Z,990.35
2018-01-22T12:56:06.898Z,990.34
2018-01-22T12:57:06.954Z,990.33
2018-01-22T12:59:00.217Z,990.35
2018-01-22T13:00:00.137Z,990.32
2018-01-22T13:01:54.564Z,990.30
2018-01-22T13:02:54.508Z,990.27
2018-01-22T13:04:48.871Z,990.26
2018-01-22T13:05:48.860Z,990.29
2018-01-22T13:07:43.290Z,990.35
2018-01-22T13:08:43.243Z,990.27
2018-01-22T13:10:37.607Z,990.26
2018-01-22T13:11:37.599Z,990.26
2018-01-22T13:13:32.060Z,990.27
2018-01-22T13:14:32.002Z,990.24
2018-01-22T13:16:26.365Z,990.21
2018-01-22T13:17:26.311Z,990.18
2018-01-22T13:19:20.836Z,990.19
2018-01-22T13:20:20.668Z,990.22
2018-01-22T13:22:15.033Z,990.19
2018-01-22T13:23:15.049Z,990.22
2018-01-22T13:25:09.431Z,990.18
2018-01-22T13:26:09.636Z,990.19
2018-01-22T13:28:03.773Z,990.18
2018-01-22T13:29:03.760Z,990.16
2018-01-22T13:30:58.325Z,990.20
2018-01-22T13:31:58.145Z,990.19
2018-01-22T13:33:52.560Z,990.21
2018-01-22T13:34:52.474Z,990.21
2018-01-22T13:36:46.827Z,990.13
2018-01-22T13:37:46.817Z,990.15
2018-01-22T13:39:41.232Z,990.09
2018-01-22T13:40:41.178Z,990.15
2018-01-22T13:42:35.590Z,990.12
2018-01-22T13:43:35.653Z,990.14
2018-01-22T13:45:29.947Z,990.14
2018-01-22T13:46:29.893Z,990.14
2018-01-22T13:48:24.261Z,990.15
2018-01-22T13:49:24.251Z,990.16
2018-01-22T13:51:18.904Z,990.18
2018-01-22T13:52:18.616Z,990.21
2018-01-22T13:54:12.984Z,990.22
2018-01-22T13:55:13.029Z,990.20
2018-01-22T13:57:07.387Z,990.21
2018-01-22T13:58:07.330Z,990.20
2018-01-22T14:00:01.747Z,990.26
2018-01-22T14:01:01.692Z,990.27
2018-01-22T14:02:56.049Z,990.28
2018-01-22T14:03:56.047Z,990.28
2018-01-22T14:05:50.437Z,990.37
2018-01-22T14:06:50.378Z,990.34
2018-01-22T14:08:49.591Z,990.37
2018-01-22T14:09:49.585Z,990.38
2018-01-22T14:11:44.037Z,990.43
2018-01-22T14:12:43.941Z,990.43
2018-01-22T14:14:38.317Z,990.44
2018-01-22T14:15:38.302Z,990.45
2018-01-22T14:17:32.712Z,990.46
2018-01-22T14:18:32.662Z,990.43
2018-01-22T14:20:27.037Z,990.42
2018-01-22T14:21:27.033Z,990.42
2018-01-22T14:23:21.582Z,990.40
2018-01-22T14:24:21.420Z,990.44
2018-01-22T14:26:15.776Z,990.41
2018-01-22T14:27:15.772Z,990.39
2018-01-22T14:29:10.222Z,990.39
2018-01-22T14:30:10.124Z,990.42
2018-01-22T14:32:04.540Z,990.40
2018-01-22T14:33:04.486Z,990.45
2018-01-22T14:34:58.849Z,990.45
2018-01-22T14:35:58.852Z,990.47
2018-01-22T14:37:53.305Z,990.47
2018-01-22T14:38:53.241Z,990.52
2018-01-22T14:40:47.601Z,990.49
2018-01-22T14:41:47.563Z,990.46
2018-01-22T14:43:41.989Z,990.50
2018-01-22T14:44:41.923Z,990.51
2018-01-22T14:46:36.287Z,990.50
2018-01-22T14:47:36.277Z,990.54
2018-01-22T14:49:30.725Z,990.55
2018-01-22T14:50:30.623Z,990.60
2018-01-22T14:52:24.998Z,990.61
2018-01-22T14:53:24.984Z,990.62
2018-01-22T14:55:19.645Z,990.65
2018-01-22T14:56:19.369Z,990.64
2018-01-22T14:58:13.725Z,990.71
2018-01-22T14:59:13.703Z,990.70
2018-01-22T15:01:08.161Z,990.72
2018-01-22T15:02:08.056Z,990.70
2018-01-22T15:04:02.432Z,990.71
2018-01-22T15:05:02.447Z,990.76
2018-01-22T15:06:56.923Z,990.75
2018-01-22T15:07:56.804Z,990.72
2018-01-22T15:09:51.136Z,990.76
2018-01-22T15:10:51.129Z,990.78
2018-01-22T15:12:50.584Z,990.82
2018-01-22T15:13:50.475Z,990.82
2018-01-22T15:15:44.878Z,990.82
2018-01-22T15:16:44.824Z,990.79
2018-01-22T15:18:39.227Z,990.84
2018-01-22T15:19:39.174Z,990.90
2018-01-22T15:21:33.549Z,990.90
2018-01-22T15:22:33.822Z,990.87
2018-01-22T15:24:28.489Z,990.95
2018-01-22T15:25:27.901Z,990.97
2018-01-22T15:27:22.266Z,990.95
2018-01-22T15:28:22.265Z,990.95
2018-01-22T15:30:16.674Z,990.93
2018-01-22T15:31:16.612Z,990.97
2018-01-22T15:33:10.980Z,991.04
2018-01-22T15:34:10.976Z,991.07
2018-01-22T15:36:05.394Z,991.12
2018-01-22T15:37:05.348Z,991.11
2018-01-22T15:38:59.753Z,991.09
2018-01-22T15:39:59.703Z,991.07
2018-01-22T15:41:54.092Z,991.07
2018-01-22T15:42:54.118Z,991.13
2018-01-22T15:44:48.536Z,991.18
2018-01-22T15:45:48.435Z,991.18
2018-01-22T15:47:42.892Z,991.27
2018-01-22T15:48:42.819Z,991.31
2018-01-22T15:50:37.155Z,991.28
2018-01-22T15:51:37.146Z,991.29
2018-01-22T15:53:31.556Z,991.35
2018-01-22T15:54:31.505Z,991.35
2018-01-22T15:56:25.879Z,991.44
2018-01-22T15:57:25.863Z,991.38
2018-01-22T15:59:20.274Z,991.44
2018-01-22T16:00:20.246Z,991.39
2018-01-22T16:02:14.600Z,991.46
2018-01-22T16:03:14.570Z,991.46
2018-01-22T16:05:08.445Z,991.45
2018-01-22T16:06:09.717Z,991.45
2018-01-22T16:08:02.747Z,991.54
2018-01-22T16:09:02.386Z,991.56
2018-01-22T16:10:56.781Z,991.51
2018-01-22T16:11:56.753Z,991.53
2018-01-22T16:13:51.079Z,991.47
2018-01-22T16:14:51.129Z,991.55
2018-01-22T16:16:45.485Z,991.57
2018-01-22T16:17:45.432Z,991.54
2018-01-22T16:19:39.885Z,991.62
2018-01-22T16:20:39.779Z,991.65
2018-01-22T16:22:34.160Z,991.65
2018-01-22T16:23:34.149Z,991.67
2018-01-22T16:25:28.638Z,991.68
2018-01-22T16:26:28.527Z,991.75
2018-01-22T16:28:22.990Z,991.70
2018-01-22T16:29:22.891Z,991.72
2018-01-22T16:31:17.258Z,991.78
2018-01-22T16:32:17.251Z,991.80
2018-01-22T16:34:11.809Z,991.83
2018-01-22T16:35:11.611Z,991.82
2018-01-22T16:37:05.976Z,991.85
2018-01-22T16:38:05.989Z,991.83
2018-01-22T16:40:00.433Z,991.93
2018-01-22T16:41:00.348Z,991.98
2018-01-22T16:42:54.745Z,992.02
2018-01-22T16:43:54.705Z,992.03
2018-01-22T16:45:49.557Z,992.03
2018-01-22T16:46:49.056Z,992.02
2018-01-22T16:48:43.422Z,991.98
2018-01-22T16:49:43.412Z,992.02
2018-01-22T16:51:41.945Z,992.04
2018-01-22T16:52:41.893Z,992.02
2018-01-22T16:54:41.041Z,991.99
2018-01-22T16:55:40.946Z,992.01
2018-01-22T16:56:40.938Z,991.97
2018-01-22T16:57:40.948Z,991.99
2018-01-22T16:58:40.979Z,992.02
2018-01-22T16:59:40.921Z,992.02
2018-01-22T17:00:40.923Z,992.08
2018-01-22T17:01:40.908Z,992.12
2018-01-22T17:02:40.907Z,992.15
2018-01-22T17:03:40.900Z,992.16
2018-01-22T17:04:40.896Z,992.18
2018-01-22T17:05:40.913Z,992.20
2018-01-22T17:06:40.881Z,992.20
2018-01-22T17:07:40.877Z,992.22
2018-01-22T17:08:40.871Z,992.25
2018-01-22T17:09:40.865Z,992.29
2018-01-22T17:10:40.863Z,992.30
2018-01-22T17:11:40.872Z,992.30
2018-01-22T17:12:40.850Z,992.35
2018-01-22T17:13:40.849Z,992.32
2018-01-22T17:14:40.857Z,992.32
2018-01-22T17:15:40.840Z,992.29
2018-01-22T17:16:40.837Z,992.29
2018-01-22T17:17:40.834Z,992.28
2018-01-22T17:18:40.861Z,992.31
2018-01-22T17:19:40.825Z,992.34
2018-01-22T17:20:40.864Z,992.36
2018-01-22T17:21:40.818Z,992.38
2018-01-22T17:22:40.801Z,992.37
2018-01-22T17:23:40.810Z,992.46
2018-01-22T17:24:40.793Z,992.47
2018-01-22T17:25:40.777Z,992.45
2018-01-22T17:26:40.772Z,992.49
2018-01-22T17:27:40.770Z,992.49
2018-01-22T17:28:40.758Z,992.51
2018-01-22T17:29:40.774Z,992.58
2018-01-22T17:30:40.747Z,992.59
2018-01-22T17:31:40.773Z,992.64
2018-01-22T17:32:40.741Z,992.60
2018-01-22T17:33:40.729Z,992.64
2018-01-22T17:34:40.728Z,992.65
2018-01-22T17:35:40.718Z,992.69
2018-01-22T17:36:40.740Z,992.68
2018-01-22T17:37:40.706Z,992.78
2018-01-22T17:38:40.702Z,992.81
2018-01-22T17:39:40.698Z,992.75
2018-01-22T17:40:40.686Z,992.79
2018-01-22T17:41:40.676Z,992.77
2018-01-22T17:42:40.683Z,992.78
2018-01-22T17:43:40.675Z,992.79
2018-01-22T17:44:40.715Z,992.75
2018-01-22T17:45:40.665Z,992.78
2018-01-22T17:46:41.303Z,992.77
2018-01-22T17:47:40.663Z,992.83
2018-01-22T17:48:40.667Z,992.87
2018-01-22T17:49:40.649Z,992.88
2018-01-22T17:50:42.317Z,992.91
2018-01-22T17:51:40.655Z,992.95
2018-01-22T17:52:40.650Z,992.97
2018-01-22T17:53:40.659Z,993.03
2018-01-22T17:54:40.632Z,993.04
2018-01-22T17:55:40.678Z,993.03
2018-01-22T17:56:40.628Z,993.08
2018-01-22T17:57:40.632Z,993.13
2018-01-22T17:58:40.645Z,993.12
2018-01-22T17:59:40.605Z,993.17
2018-01-22T18:00:40.651Z,993.18
2018-01-22T18:01:40.604Z,993.19
2018-01-22T18:02:40.610Z,993.17
2018-01-22T18:03:40.602Z,993.17
2018-01-22T18:04:40.604Z,993.15
2018-01-22T18:05:40.588Z,993.17
2018-01-22T18:06:40.652Z,993.17
2018-01-22T18:07:40.540Z,993.22
2018-01-22T18:08:40.583Z,993.25
2018-01-22T18:09:40.550Z,993.27
2018-01-22T18:10:40.591Z,993.30
2018-01-22T18:11:40.780Z,993.27
2018-01-22T18:12:40.529Z,993.31
2018-01-22T18:13:40.530Z,993.29
2018-01-22T18:14:40.548Z,993.28
2018-01-22T18:15:40.512Z,993.37
2018-01-22T18:16:40.511Z,993.37
2018-01-22T18:17:40.522Z,993.43
2018-01-22T18:18:40.498Z,993.46
2018-01-22T18:19:40.942Z,993.48
2018-01-22T18:20:40.489Z,993.52
2018-01-22T18:21:40.473Z,993.56
2018-01-22T18:22:40.485Z,993.57
2018-01-22T18:23:43.325Z,993.56
2018-01-22T18:24:40.475Z,993.63
2018-01-22T18:25:40.470Z,993.61
2018-01-22T18:26:40.443Z,993.62
2018-01-22T18:27:40.437Z,993.64
2018-01-22T18:28:40.489Z,993.62
2018-01-22T18:29:40.437Z,993.63
2018-01-22T18:30:40.433Z,993.62
2018-01-22T18:31:40.428Z,993.62
2018-01-22T18:32:40.429Z,993.58
2018-01-22T18:33:40.518Z,993.58
2018-01-22T18:34:40.413Z,993.64
2018-01-22T18:35:40.408Z,993.71
2018-01-22T18:36:40.402Z,993.69
2018-01-22T18:37:40.406Z,993.73
2018-01-22T18:38:40.406Z,993.76
2018-01-22T18:39:40.394Z,993.74
2018-01-22T18:40:40.386Z,993.75
2018-01-22T18:41:40.381Z,993.83
2018-01-22T18:42:40.372Z,993.84
2018-01-22T18:43:40.389Z,993.77
2018-01-22T18:44:40.364Z,993.78
2018-01-22T18:45:40.364Z,993.80
2018-01-22T18:46:40.354Z,993.71
2018-01-22T18:47:40.373Z,993.82
2018-01-22T18:48:40.355Z,993.81
2018-01-22T18:49:40.339Z,993.78
2018-01-22T18:50:40.350Z,993.78
2018-01-22T18:51:40.329Z,993.83
2018-01-22T18:52:40.367Z,993.82
2018-01-22T18:53:40.319Z,993.83
2018-01-22T18:54:40.315Z,993.88
2018-01-22T18:55:40.315Z,993.83
2018-01-22T18:56:40.303Z,993.82
2018-01-22T18:57:40.301Z,993.83
2018-01-22T18:58:40.298Z,993.88
2018-01-22T18:59:40.297Z,993.83
2018-01-22T19:00:40.274Z,993.82
2018-01-22T19:01:40.270Z,993.87
2018-01-22T19:02:40.281Z,993.90
2018-01-22T19:03:40.269Z,993.92
2018-01-22T19:04:40.270Z,993.91
2018-01-22T19:05:40.259Z,993.96
2018-01-22T19:06:40.253Z,993.95
2018-01-22T19:07:43.850Z,993.96
2018-01-22T19:08:40.588Z,993.99
2018-01-22T19:09:40.242Z,994.00
2018-01-22T19:10:40.241Z,994.05
2018-01-22T19:11:40.231Z,994.09
2018-01-22T19:12:40.231Z,994.05
2018-01-22T19:13:40.210Z,994.10
2018-01-22T19:14:40.203Z,994.17
2018-01-22T19:15:40.231Z,994.16
2018-01-22T19:16:40.205Z,994.16
2018-01-22T19:17:40.212Z,994.18
2018-01-22T19:18:40.682Z,994.22
2018-01-22T19:19:40.178Z,994.26
2018-01-22T19:20:40.174Z,994.31
2018-01-22T19:21:40.313Z,994.28
2018-01-22T19:22:40.181Z,994.30
2018-01-22T19:23:40.178Z,994.28
2018-01-22T19:24:40.174Z,994.31
2018-01-22T19:25:40.160Z,994.27
2018-01-22T19:26:40.154Z,994.28
2018-01-22T19:27:40.155Z,994.36
2018-01-22T19:28:40.145Z,994.38
2018-01-22T19:29:40.141Z,994.30
2018-01-22T19:30:40.136Z,994.38
2018-01-22T19:31:40.141Z,994.34
2018-01-22T19:32:40.131Z,994.33
2018-01-22T19:33:40.120Z,994.39
2018-01-22T19:34:40.117Z,994.36
2018-01-22T19:35:40.113Z,994.41
2018-01-22T19:36:40.880Z,994.45
2018-01-22T19:37:41.142Z,994.36
2018-01-22T19:38:41.756Z,994.39
2018-01-22T19:39:40.600Z,994.43
2018-01-22T19:40:40.077Z,994.49
2018-01-22T19:41:40.072Z,994.51
2018-01-22T19:42:40.078Z,994.47
2018-01-22T19:43:40.079Z,994.57
2018-01-22T19:44:40.105Z,994.49
2018-01-22T19:45:40.101Z,994.63
2018-01-22T19:46:40.073Z,994.57
2018-01-22T19:47:40.077Z,994.60
2018-01-22T19:48:40.763Z,994.59
2018-01-22T19:49:40.039Z,994.62
2018-01-22T19:50:40.301Z,994.66
2018-01-22T19:51:40.038Z,994.58
2018-01-22T19:52:40.088Z,994.60
2018-01-22T19:53:40.044Z,994.62
2018-01-22T19:54:40.032Z,994.65
2018-01-22T19:55:40.028Z,994.70
2018-01-22T19:56:40.022Z,994.75
2018-01-22T19:57:40.010Z,994.78
2018-01-22T19:58:40.000Z,994.79
2018-01-22T19:59:39.995Z,994.82
2018-01-22T20:00:39.996Z,994.82
2018-01-22T20:01:40.017Z,994.80
2018-01-22T20:02:40.190Z,994.78
2018-01-22T20:03:39.998Z,994.75
2018-01-22T20:04:40.018Z,994.75
2018-01-22T20:05:39.983Z,994.76
2018-01-22T20:06:39.994Z,994.75
2018-01-22T20:07:39.984Z,994.83
2018-01-22T20:08:39.986Z,994.85
2018-01-22T20:09:40.049Z,994.79
2018-01-22T20:10:39.981Z,994.81
2018-01-22T20:11:40.010Z,994.79
2018-01-22T20:12:39.963Z,994.79
2018-01-22T20:13:39.946Z,994.82
2018-01-22T20:14:39.940Z,994.82
2018-01-22T20:15:39.948Z,994.84
2018-01-22T20:16:39.939Z,994.81
2018-01-22T20:17:39.917Z,994.84
2018-01-22T20:18:39.928Z,994.86
2018-01-22T20:19:39.924Z,994.86
2018-01-22T20:20:39.938Z,994.92
2018-01-22T20:21:39.909Z,994.92
2018-01-22T20:22:39.898Z,994.87
2018-01-22T20:23:39.896Z,994.88
2018-01-22T20:24:39.885Z,994.89
2018-01-22T20:25:39.883Z,994.89
2018-01-22T20:26:40.323Z,994.84
2018-01-22T20:27:39.900Z,994.84
2018-01-22T20:28:39.917Z,994.91
2018-01-22T20:29:39.996Z,994.96
2018-01-22T20:30:39.931Z,994.96
2018-01-22T20:31:39.863Z,995.03
2018-01-22T20:32:39.871Z,995.08
2018-01-22T20:33:39.860Z,995.13
2018-01-22T20:34:39.838Z,995.15
2018-01-22T20:35:39.828Z,995.13
2018-01-22T20:36:40.090Z,995.14
2018-01-22T20:37:39.817Z,995.16
2018-01-22T20:38:39.802Z,995.17
2018-01-22T20:39:40.035Z,995.21
2018-01-22T20:40:39.794Z,995.23
2018-01-22T20:41:39.980Z,995.31
2018-01-22T20:42:39.853Z,995.31
2018-01-22T20:43:39.825Z,995.27
2018-01-22T20:44:39.801Z,995.30
2018-01-22T20:45:39.804Z,995.30
2018-01-22T20:46:40.390Z,995.31
2018-01-22T20:47:40.779Z,995.34
2018-01-22T20:48:39.778Z,995.39
2018-01-22T20:49:39.813Z,995.36
2018-01-22T20:50:39.853Z,995.42
2018-01-22T20:51:39.776Z,995.51
2018-01-22T20:52:39.766Z,995.58
2018-01-22T20:53:39.768Z,995.60
2018-01-22T20:54:39.783Z,995.66
2018-01-22T20:55:39.772Z,995.62
2018-01-22T20:56:39.956Z,995.66
2018-01-22T20:57:39.781Z,995.69
2018-01-22T20:58:39.753Z,995.69
2018-01-22T20:59:39.736Z,995.74
2018-01-22T21:00:39.727Z,995.75
2018-01-22T21:01:39.749Z,995.76
2018-01-22T21:02:39.729Z,995.81
2018-01-22T21:03:39.717Z,995.76
2018-01-22T21:04:39.698Z,995.84
2018-01-22T21:05:39.696Z,995.95
2018-01-22T21:06:39.696Z,995.94
2018-01-22T21:07:39.688Z,996.04
2018-01-22T21:08:39.753Z,996.04
2018-01-22T21:09:39.692Z,996.13
2018-01-22T21:10:39.659Z,996.21
2018-01-22T21:11:39.658Z,996.21
2018-01-22T21:12:39.669Z,996.14
2018-01-22T21:13:39.659Z,996.15
2018-01-22T21:14:40.758Z,996.14
2018-01-22T21:15:39.636Z,996.13
2018-01-22T21:16:40.431Z,996.11
2018-01-22T21:17:39.636Z,996.15
2018-01-22T21:18:39.625Z,996.19
2018-01-22T21:19:39.642Z,996.13
2018-01-22T21:20:39.668Z,996.16
2018-01-22T21:21:40.288Z,996.11
2018-01-22T21:22:39.612Z,996.17
2018-01-22T21:23:39.603Z,996.20
2018-01-22T21:24:39.596Z,996.25
2018-01-22T21:25:39.586Z,996.22
2018-01-22T21:26:39.581Z,996.29
2018-01-22T21:27:39.577Z,996.27
2018-01-22T21:28:39.574Z,996.20
2018-01-22T21:29:39.575Z,996.11
2018-01-22T21:30:39.564Z,996.23
2018-01-22T21:31:39.558Z,996.22
2018-01-22T21:32:39.568Z,996.29
2018-01-22T21:33:39.550Z,996.30
2018-01-22T21:34:39.548Z,996.30
2018-01-22T21:35:39.540Z,996.29
2018-01-22T21:36:39.536Z,996.30
2018-01-22T21:37:39.539Z,996.31
2018-01-22T21:38:40.024Z,996.31
2018-01-22T21:39:39.519Z,996.35
2018-01-22T21:40:39.509Z,996.35
2018-01-22T21:41:39.512Z,996.34
2018-01-22T21:42:39.508Z,996.30
2018-01-22T21:43:39.506Z,996.33
2018-01-22T21:44:39.505Z,996.39
2018-01-22T21:45:39.494Z,996.39
2018-01-22T21:46:39.505Z,996.46
2018-01-22T21:47:39.545Z,996.48
2018-01-22T21:48:39.481Z,996.53
2018-01-22T21:49:39.476Z,996.58
2018-01-22T21:50:39.472Z,996.58
2018-01-22T21:51:39.467Z,996.63
2018-01-22T21:52:39.500Z,996.68
2018-01-22T21:53:39.459Z,996.69
2018-01-22T21:54:39.457Z,996.72
2018-01-22T21:55:39.452Z,996.75
2018-01-22T21:56:39.452Z,996.77
2018-01-22T21:57:39.443Z,996.77
2018-01-22T21:58:39.481Z,996.78
2018-01-22T21:59:39.433Z,996.77
2018-01-22T22:00:39.425Z,996.82
2018-01-22T22:01:39.420Z,996.79
2018-01-22T22:02:39.417Z,996.82
2018-01-22T22:03:39.414Z,996.82
2018-01-22T22:04:39.409Z,996.82
2018-01-22T22:05:39.401Z,996.77
2018-01-22T22:06:39.401Z,996.79
2018-01-22T22:07:39.395Z,996.79
2018-01-22T22:08:39.392Z,996.82
2018-01-22T22:09:39.383Z,996.80
2018-01-22T22:10:39.379Z,996.80
2018-01-22T22:11:39.374Z,996.80
2018-01-22T22:12:39.370Z,996.86
2018-01-22T22:13:39.364Z,996.90
2018-01-22T22:14:39.678Z,996.94
2018-01-22T22:15:39.348Z,996.90
2018-01-22T22:16:39.397Z,996.99
2018-01-22T22:17:39.346Z,996.99
2018-01-22T22:18:39.342Z,997.07
2018-01-22T22:19:39.339Z,997.07
2018-01-22T22:20:39.449Z,997.03
2018-01-22T22:21:39.321Z,996.98
2018-01-22T22:22:39.313Z,997.00
2018-01-22T22:23:39.319Z,997.02
2018-01-22T22:24:39.315Z,997.07
2018-01-22T22:25:39.335Z,997.05
2018-01-22T22:26:39.335Z,997.16
2018-01-22T22:27:39.291Z,997.20
2018-01-22T22:28:39.322Z,997.22
2018-01-22T22:29:39.290Z,997.21
2018-01-22T22:30:39.285Z,997.18
2018-01-22T22:31:39.281Z,997.27
2018-01-22T22:32:39.275Z,997.31
2018-01-22T22:33:39.271Z,997.31
2018-01-22T22:34:39.280Z,997.27
2018-01-22T22:35:39.276Z,997.26
2018-01-22T22:36:39.257Z,997.24
2018-01-22T22:37:39.251Z,997.24
2018-01-22T22:38:39.246Z,997.27
2018-01-22T22:39:39.247Z,997.28
2018-01-22T22:40:39.238Z,997.26
2018-01-22T22:41:39.232Z,997.28
2018-01-22T22:42:39.228Z,997.28
2018-01-22T22:43:39.222Z,997.29
2018-01-22T22:44:39.219Z,997.36
2018-01-22T22:45:39.233Z,997.35
2018-01-22T22:46:39.207Z,997.34
2018-01-22T22:47:39.204Z,997.37
2018-01-22T22:48:39.200Z,997.33
2018-01-22T22:49:39.196Z,997.41
2018-01-22T22:50:39.188Z,997.44
2018-01-22T22:51:39.185Z,997.51
2018-01-22T22:52:39.180Z,997.58
2018-01-22T22:53:39.542Z,997.59
2018-01-22T22:54:39.170Z,997.58
2018-01-22T22:55:39.165Z,997.61
2018-01-22T22:56:39.162Z,997.66
2018-01-22T22:57:39.155Z,997.66
2018-01-22T22:58:39.153Z,997.65
2018-01-22T22:59:39.145Z,997.64
2018-01-22T23:00:39.142Z,997.64
2018-01-22T23:01:39.143Z,997.72
2018-01-22T23:02:39.132Z,997.68
2018-01-22T23:03:39.127Z,997.75
2018-01-22T23:04:39.123Z,997.82
2018-01-22T23:05:39.134Z,997.86
2018-01-22T23:06:39.115Z,997.91
2018-01-22T23:07:39.109Z,997.97
2018-01-22T23:08:39.104Z,997.98
2018-01-22T23:09:39.099Z,998.01
2018-01-22T23:10:39.096Z,997.99
2018-01-22T23:11:39.093Z,997.98
2018-01-22T23:12:39.095Z,997.94
2018-01-22T23:13:39.080Z,998.02
2018-01-22T23:14:39.076Z,997.96
2018-01-22T23:15:39.072Z,998.01
2018-01-22T23:16:39.069Z,998.06
2018-01-22T23:17:39.062Z,997.98
2018-01-22T23:18:39.064Z,998.05
2018-01-22T23:19:39.052Z,998.06
2018-01-22T23:20:39.048Z,998.07
2018-01-22T23:21:39.044Z,998.09
2018-01-22T23:22:39.769Z,998.16
2018-01-22T23:23:39.118Z,998.18
2018-01-22T23:24:40.007Z,998.15
2018-01-22T23:25:39.024Z,998.22
2018-01-22T23:26:39.024Z,998.23
2018-01-22T23:27:39.018Z,998.26
2018-01-22T23:28:39.014Z,998.23
2018-01-22T23:29:39.007Z,998.29
2018-01-22T23:30:39.001Z,998.31
2018-01-22T23:31:38.998Z,998.26
2018-01-22T23:32:38.992Z,998.24
2018-01-22T23:33:38.987Z,998.29
2018-01-22T23:34:38.986Z,998.33
2018-01-22T23:35:38.978Z,998.32
2018-01-22T23:36:38.979Z,998.36
2018-01-22T23:37:38.986Z,998.50
2018-01-22T23:38:38.964Z,998.47
2018-01-22T23:39:38.960Z,998.48
2018-01-22T23:40:38.957Z,998.48
2018-01-22T23:41:38.949Z,998.49
2018-01-22T23:42:38.945Z,998.51
2018-01-22T23:43:38.942Z,998.51
2018-01-22T23:44:38.941Z,998.56
2018-01-22T23:45:38.930Z,998.57
2018-01-22T23:46:38.927Z,998.61
2018-01-22T23:47:38.922Z,998.67
2018-01-22T23:48:38.919Z,998.67
2018-01-22T23:49:38.923Z,998.64
2018-01-22T23:50:38.907Z,998.66
2018-01-22T23:51:38.905Z,998.65
2018-01-22T23:52:38.897Z,998.66
2018-01-22T23:53:38.892Z,998.70
2018-01-22T23:54:38.888Z,998.65
2018-01-22T23:55:38.884Z,998.68
2018-01-22T23:56:38.880Z,998.76
2018-01-22T23:57:38.873Z,998.80
2018-01-22T23:58:38.868Z,998.86
2018-01-22T23:59:38.866Z,998.84
